Terminal Aerodrome Forecast
Issued by NWS

Current Version | Previous Version | Text Only | Print | Product List | Glossary On
Versions: 1 2 3 4 5 6 7 8 9 10 11 12 13 14 15 16
000
FTUS43 KILX 142300
TAFCMI
TAF
KCMI 142321Z 1500/1524 17005KT P6SM SCT150
     FM151300 19006KT P6SM VCSH BKN050
     FM152200 34012G18KT P6SM VCSH BKN030
      TEMPO 1522/1524 4SM -SHRA BR BKN025=

USA.gov is the U.S. government's official web portal to all federal, state and local government web resources and services.